Harrisburg, Pennsylvania
Current Conditions -  °F | °C
As of 9:56 PM on Saturday 22 Nov 2014 (Local Time) from KCXY Reporting Station
Few Clouds Few Clouds  
Wind Chill: 33°   Ceiling: Unl
Heat Index: 33°   Visibility: 10mi
Dew Point: 21°   Wind: 0mph
Humidity: 61%   Direction: NA
Pressure: 30.21"   Gusts: NA
Location:  40.26°N, 76.88°W
Report Text: KCXY 230256Z AUTO 00000KT 10SM FEW110 01/M06 A3021 RMK AO2 SLP234 T00061061 58016
Loading
Personal Weather Stations






























Interactive Weather Map New forecast layout! Learn more

10-Day Weather Forecast

Advertisements
Track Severe Weather on mobile